Costa Luminosa — ICGU — position and weather

sailwx.info

Track history (hours):
 
Tides and Currents Weather Stations Pressure Air Temp Water Temp Dewpoint Dewpoint Depression Visibility Wind Speed Wind Dir Waves Ship Positions

Costa Luminosa

Last reported at 2015-Jan-30 12:00 UTC. Time now 2015-Feb-01 14:45 UTC.
Position N 18°06' W 086°24'.

Length 292 m; draft 8.1 m.

Type: Ship. MMSI: 247257900.

Wind from 030 at 25 knots

Waves 2.0 meters (7 feet), 2 second period

Barometer 1018.0 mb
Air temperature 25.0 ° C
Visibility: greater than 10.8 NM
Dewpoint 19.1 ° C
Water temperature 21.0 ° C

Date/timePositionNaut miles runAvg speedWind from/ knotsBaromVisibWave heightAir tempDewpointWater temp
2015-Jan-30 12:00N 18°06' W 086°24'146 4.2 030 / 251018.010.8 2.025.019.121.0
2015-Jan-29 01:30N 20°27' W 087°02'4 3.7
2015-Jan-29 00:30N 20°29' W 086°59'0 0.0
2015-Jan-28 23:30N 20°29' W 086°59'0 0.0
2015-Jan-28 22:30N 20°29' W 086°59'0 0.0
2015-Jan-28 21:24N 20°29' W 086°59'0 0.0
2015-Jan-28 20:33N 20°29' W 086°59'0 0.0
2015-Jan-28 16:12N 20°29' W 086°59'0 0.0
2015-Jan-28 15:27N 20°29' W 086°59'0 0.0
2015-Jan-28 14:33N 20°29' W 086°59'0 0.0
2015-Jan-28 13:33N 20°29' W 086°59'8 7.5
2015-Jan-28 12:29N 20°36' W 086°56'39516.1
2015-Jan-27 12:00N 24°06' W 080°54'9616.5 310 / 251013.010.8 2.020.015.316.0
2015-Jan-27 06:08N 25°30' W 080°01'916.3
2015-Jan-27 05:34N 25°39' W 080°00'10 9.5
2015-Jan-27 04:33N 25°46' W 080°08'2 0.1
2015-Jan-26 11:18N 25°47' W 080°10'1 1.7
2015-Jan-26 10:33N 25°46' W 080°09'1010.1
2015-Jan-26 09:33N 25°49' W 079°58'1615.8
2015-Jan-26 08:33N 25°57' W 079°43'1616.2
2015-Jan-26 07:33N 26°06' W 079°28'1817.3
2015-Jan-26 06:30N 26°16' W 079°11'111 5.3
2015-Jan-25 09:25N 25°33' W 077°18'405 8.9
2015-Jan-23 12:00N 20°36' W 072°18'   080 / 201017.010.8 2.025.017.525.0
Track history (hours):
 
Tides and Currents Weather Stations Pressure Air Temp Water Temp Dewpoint Dewpoint Depression Visibility Wind Speed Wind Dir Waves Ship Positions

Costa Luminosa

Last reported at 2015-Jan-30 12:00 UTC. Time now 2015-Feb-01 14:45 UTC.
Position N 18°06' W 086°24'.

Length 292 m; draft 8.1 m.

Type: Ship. MMSI: 247257900.

Wind from 030 at 25 knots

Waves 2.0 meters (7 feet), 2 second period

Barometer 1018.0 mb
Air temperature 25.0 ° C
Visibility: greater than 10.8 NM
Dewpoint 19.1 ° C
Water temperature 21.0 ° C

Date/timePositionNaut miles runAvg speedWind from/ knotsBaromVisibWave heightAir tempDewpointWater temp
2015-Jan-30 12:00N 18°06' W 086°24'146 4.2 030 / 251018.010.8 2.025.019.121.0
2015-Jan-29 01:30N 20°27' W 087°02'4 3.7
2015-Jan-29 00:30N 20°29' W 086°59'0 0.0
2015-Jan-28 23:30N 20°29' W 086°59'0 0.0
2015-Jan-28 22:30N 20°29' W 086°59'0 0.0
2015-Jan-28 21:24N 20°29' W 086°59'0 0.0
2015-Jan-28 20:33N 20°29' W 086°59'0 0.0
2015-Jan-28 16:12N 20°29' W 086°59'0 0.0
2015-Jan-28 15:27N 20°29' W 086°59'0 0.0
2015-Jan-28 14:33N 20°29' W 086°59'0 0.0
2015-Jan-28 13:33N 20°29' W 086°59'8 7.5
2015-Jan-28 12:29N 20°36' W 086°56'39516.1
2015-Jan-27 12:00N 24°06' W 080°54'9616.5 310 / 251013.010.8 2.020.015.316.0
2015-Jan-27 06:08N 25°30' W 080°01'916.3
2015-Jan-27 05:34N 25°39' W 080°00'10 9.5
2015-Jan-27 04:33N 25°46' W 080°08'2 0.1
2015-Jan-26 11:18N 25°47' W 080°10'1 1.7
2015-Jan-26 10:33N 25°46' W 080°09'1010.1
2015-Jan-26 09:33N 25°49' W 079°58'1615.8
2015-Jan-26 08:33N 25°57' W 079°43'1616.2
2015-Jan-26 07:33N 26°06' W 079°28'1817.3
2015-Jan-26 06:30N 26°16' W 079°11'111 5.3
2015-Jan-25 09:25N 25°33' W 077°18'405 8.9
2015-Jan-23 12:00N 20°36' W 072°18'   080 / 201017.010.8 2.025.017.525.0

Dump ship's entire track history